sensor_id;sensor_type;location;lat;lon;timestamp;temperature;humidity
16066;DHT22;8137;48.952;8.970;2024-01-11T00:01:46;-6.30;99.90
16066;DHT22;8137;48.952;8.970;2024-01-11T00:04:12;-6.30;99.90
16066;DHT22;8137;48.952;8.970;2024-01-11T00:06:44;-6.30;99.90
16066;DHT22;8137;48.952;8.970;2024-01-11T00:09:10;-6.30;99.90
16066;DHT22;8137;48.952;8.970;2024-01-11T00:11:36;-6.40;99.90
16066;DHT22;8137;48.952;8.970;2024-01-11T00:14:02;-6.30;99.90
16066;DHT22;8137;48.952;8.970;2024-01-11T00:16:27;-6.30;99.90
16066;DHT22;8137;48.952;8.970;2024-01-11T00:18:53;-6.30;99.90
16066;DHT22;8137;48.952;8.970;2024-01-11T00:21:18;-6.30;99.90
16066;DHT22;8137;48.952;8.970;2024-01-11T00:23:44;-6.30;99.90
16066;DHT22;8137;48.952;8.970;2024-01-11T00:26:12;-6.30;99.90
16066;DHT22;8137;48.952;8.970;2024-01-11T00:28:38;-6.40;99.90
16066;DHT22;8137;48.952;8.970;2024-01-11T00:31:04;-6.50;99.90
16066;DHT22;8137;48.952;8.970;2024-01-11T00:33:30;-6.50;99.90
16066;DHT22;8137;48.952;8.970;2024-01-11T00:35:55;-6.60;99.90
16066;DHT22;8137;48.952;8.970;2024-01-11T00:38:21;-6.50;99.90
16066;DHT22;8137;48.952;8.970;2024-01-11T00:40:46;-6.60;99.90
16066;DHT22;8137;48.952;8.970;2024-01-11T00:43:12;-6.60;99.90
16066;DHT22;8137;48.952;8.970;2024-01-11T00:45:38;-6.60;99.90
16066;DHT22;8137;48.952;8.970;2024-01-11T00:48:04;-6.60;99.90
16066;DHT22;8137;48.952;8.970;2024-01-11T00:50:29;-6.60;99.90
16066;DHT22;8137;48.952;8.970;2024-01-11T00:52:55;-6.70;99.90
16066;DHT22;8137;48.952;8.970;2024-01-11T00:55:21;-6.70;99.90
16066;DHT22;8137;48.952;8.970;2024-01-11T00:57:47;-6.70;99.90
16066;DHT22;8137;48.952;8.970;2024-01-11T01:00:13;-6.70;99.90
16066;DHT22;8137;48.952;8.970;2024-01-11T01:02:39;-6.70;99.90
16066;DHT22;8137;48.952;8.970;2024-01-11T01:05:05;-6.70;99.90
16066;DHT22;8137;48.952;8.970;2024-01-11T01:07:31;-6.70;99.90
16066;DHT22;8137;48.952;8.970;2024-01-11T01:09:57;-6.70;99.90
16066;DHT22;8137;48.952;8.970;2024-01-11T01:12:23;-6.70;99.90
16066;DHT22;8137;48.952;8.970;2024-01-11T01:14:50;-6.70;99.90
16066;DHT22;8137;48.952;8.970;2024-01-11T01:17:16;-6.70;99.90
16066;DHT22;8137;48.952;8.970;2024-01-11T01:19:42;-6.80;99.90
16066;DHT22;8137;48.952;8.970;2024-01-11T01:22:07;-6.80;99.90
16066;DHT22;8137;48.952;8.970;2024-01-11T01:24:33;-6.80;99.90
16066;DHT22;8137;48.952;8.970;2024-01-11T01:26:58;-6.80;99.90
16066;DHT22;8137;48.952;8.970;2024-01-11T01:29:24;-6.80;99.90
16066;DHT22;8137;48.952;8.970;2024-01-11T01:31:51;-6.80;99.90
16066;DHT22;8137;48.952;8.970;2024-01-11T01:34:16;-6.80;99.90
16066;DHT22;8137;48.952;8.970;2024-01-11T01:36:42;-6.80;99.90
16066;DHT22;8137;48.952;8.970;2024-01-11T01:39:08;-6.70;99.90
16066;DHT22;8137;48.952;8.970;2024-01-11T01:41:33;-6.80;99.90
16066;DHT22;8137;48.952;8.970;2024-01-11T01:43:59;-6.70;99.90
16066;DHT22;8137;48.952;8.970;2024-01-11T01:46:25;-6.70;99.90
16066;DHT22;8137;48.952;8.970;2024-01-11T01:48:56;-6.80;99.90
16066;DHT22;8137;48.952;8.970;2024-01-11T01:51:22;-6.80;99.90
16066;DHT22;8137;48.952;8.970;2024-01-11T01:53:50;-6.80;99.90
16066;DHT22;8137;48.952;8.970;2024-01-11T01:56:18;-6.90;99.90
16066;DHT22;8137;48.952;8.970;2024-01-11T01:58:43;-6.90;99.90
16066;DHT22;8137;48.952;8.970;2024-01-11T02:01:09;-6.90;99.90
16066;DHT22;8137;48.952;8.970;2024-01-11T02:03:35;-7.00;99.90
16066;DHT22;8137;48.952;8.970;2024-01-11T02:06:03;-7.00;99.90
16066;DHT22;8137;48.952;8.970;2024-01-11T02:08:30;-6.90;99.90
16066;DHT22;8137;48.952;8.970;2024-01-11T02:10:58;-6.90;99.90
16066;DHT22;8137;48.952;8.970;2024-01-11T02:13:25;-6.90;99.90
16066;DHT22;8137;48.952;8.970;2024-01-11T02:15:50;-7.00;99.90
16066;DHT22;8137;48.952;8.970;2024-01-11T02:18:16;-7.00;99.90
16066;DHT22;8137;48.952;8.970;2024-01-11T02:20:42;-7.00;99.90
16066;DHT22;8137;48.952;8.970;2024-01-11T02:23:14;-6.90;99.90
16066;DHT22;8137;48.952;8.970;2024-01-11T02:25:42;-6.90;99.90
16066;DHT22;8137;48.952;8.970;2024-01-11T02:28:08;-6.90;99.90
16066;DHT22;8137;48.952;8.970;2024-01-11T02:30:37;-7.00;99.90
16066;DHT22;8137;48.952;8.970;2024-01-11T02:33:04;-7.00;99.90
16066;DHT22;8137;48.952;8.970;2024-01-11T02:35:31;-7.10;99.90
16066;DHT22;8137;48.952;8.970;2024-01-11T02:37:57;-7.00;99.90
16066;DHT22;8137;48.952;8.970;2024-01-11T02:40:23;-7.10;99.90
16066;DHT22;8137;48.952;8.970;2024-01-11T02:42:51;-7.20;99.90
16066;DHT22;8137;48.952;8.970;2024-01-11T02:45:17;-7.30;99.90
16066;DHT22;8137;48.952;8.970;2024-01-11T02:47:44;-7.30;99.90
16066;DHT22;8137;48.952;8.970;2024-01-11T02:50:09;-7.30;99.90
16066;DHT22;8137;48.952;8.970;2024-01-11T02:52:37;-7.20;99.90
16066;DHT22;8137;48.952;8.970;2024-01-11T02:55:03;-7.30;99.90
16066;DHT22;8137;48.952;8.970;2024-01-11T02:57:29;-7.30;99.90
16066;DHT22;8137;48.952;8.970;2024-01-11T02:59:54;-7.30;99.90
16066;DHT22;8137;48.952;8.970;2024-01-11T03:02:20;-7.30;99.90
16066;DHT22;8137;48.952;8.970;2024-01-11T03:04:46;-7.30;99.90
16066;DHT22;8137;48.952;8.970;2024-01-11T03:07:11;-7.30;99.90
16066;DHT22;8137;48.952;8.970;2024-01-11T03:09:37;-7.30;99.90
16066;DHT22;8137;48.952;8.970;2024-01-11T03:12:03;-7.30;99.90
16066;DHT22;8137;48.952;8.970;2024-01-11T03:14:29;-7.30;99.90
16066;DHT22;8137;48.952;8.970;2024-01-11T03:16:54;-7.30;99.90
16066;DHT22;8137;48.952;8.970;2024-01-11T03:19:20;-7.20;99.90
16066;DHT22;8137;48.952;8.970;2024-01-11T03:21:46;-7.20;99.90
16066;DHT22;8137;48.952;8.970;2024-01-11T03:24:13;-7.20;99.90
16066;DHT22;8137;48.952;8.970;2024-01-11T03:26:38;-7.30;99.90
16066;DHT22;8137;48.952;8.970;2024-01-11T03:29:05;-7.30;99.90
16066;DHT22;8137;48.952;8.970;2024-01-11T03:31:30;-7.30;99.90
16066;DHT22;8137;48.952;8.970;2024-01-11T03:33:57;-7.40;99.90
16066;DHT22;8137;48.952;8.970;2024-01-11T03:36:25;-7.30;99.90
16066;DHT22;8137;48.952;8.970;2024-01-11T03:38:51;-7.30;99.90
16066;DHT22;8137;48.952;8.970;2024-01-11T03:41:17;-7.30;99.90
16066;DHT22;8137;48.952;8.970;2024-01-11T03:43:42;-7.30;99.90
16066;DHT22;8137;48.952;8.970;2024-01-11T03:46:08;-7.40;99.90
16066;DHT22;8137;48.952;8.970;2024-01-11T03:48:33;-7.40;99.90
16066;DHT22;8137;48.952;8.970;2024-01-11T03:51:01;-7.40;99.90
16066;DHT22;8137;48.952;8.970;2024-01-11T03:53:27;-7.50;99.90
16066;DHT22;8137;48.952;8.970;2024-01-11T03:55:52;-7.50;99.90
16066;DHT22;8137;48.952;8.970;2024-01-11T03:58:18;-7.40;99.90
16066;DHT22;8137;48.952;8.970;2024-01-11T04:00:43;-7.40;99.90
16066;DHT22;8137;48.952;8.970;2024-01-11T04:03:09;-7.40;99.90
16066;DHT22;8137;48.952;8.970;2024-01-11T04:05:35;-7.50;99.90
16066;DHT22;8137;48.952;8.970;2024-01-11T04:08:04;-7.50;99.90
16066;DHT22;8137;48.952;8.970;2024-01-11T04:10:30;-7.50;99.90
16066;DHT22;8137;48.952;8.970;2024-01-11T04:12:55;-7.50;99.90
16066;DHT22;8137;48.952;8.970;2024-01-11T04:15:21;-7.40;99.90
16066;DHT22;8137;48.952;8.970;2024-01-11T04:17:47;-7.40;99.90
16066;DHT22;8137;48.952;8.970;2024-01-11T04:20:13;-7.40;99.90
16066;DHT22;8137;48.952;8.970;2024-01-11T04:22:38;-7.50;99.90
16066;DHT22;8137;48.952;8.970;2024-01-11T04:25:04;-7.50;99.90
16066;DHT22;8137;48.952;8.970;2024-01-11T04:27:30;-7.40;99.90
16066;DHT22;8137;48.952;8.970;2024-01-11T04:29:56;-7.50;99.90
16066;DHT22;8137;48.952;8.970;2024-01-11T04:32:22;-7.50;99.90
16066;DHT22;8137;48.952;8.970;2024-01-11T04:34:47;-7.50;99.90
16066;DHT22;8137;48.952;8.970;2024-01-11T04:37:13;-7.50;99.90
16066;DHT22;8137;48.952;8.970;2024-01-11T04:39:38;-7.50;99.90
16066;DHT22;8137;48.952;8.970;2024-01-11T04:42:04;-7.50;99.90
16066;DHT22;8137;48.952;8.970;2024-01-11T04:44:30;-7.50;99.90
16066;DHT22;8137;48.952;8.970;2024-01-11T04:46:55;-7.50;99.90
16066;DHT22;8137;48.952;8.970;2024-01-11T04:49:21;-7.50;99.90
16066;DHT22;8137;48.952;8.970;2024-01-11T04:51:46;-7.50;99.90
16066;DHT22;8137;48.952;8.970;2024-01-11T04:54:12;-7.50;99.90
16066;DHT22;8137;48.952;8.970;2024-01-11T04:56:37;-7.60;99.90
16066;DHT22;8137;48.952;8.970;2024-01-11T04:59:03;-7.70;99.90
16066;DHT22;8137;48.952;8.970;2024-01-11T05:01:29;-7.60;99.90
16066;DHT22;8137;48.952;8.970;2024-01-11T05:03:54;-7.60;99.90
16066;DHT22;8137;48.952;8.970;2024-01-11T05:06:21;-7.60;99.90
16066;DHT22;8137;48.952;8.970;2024-01-11T05:08:49;-7.60;99.90
16066;DHT22;8137;48.952;8.970;2024-01-11T05:11:16;-7.60;99.90
16066;DHT22;8137;48.952;8.970;2024-01-11T05:13:42;-7.60;99.90
16066;DHT22;8137;48.952;8.970;2024-01-11T05:16:15;-7.60;99.90
16066;DHT22;8137;48.952;8.970;2024-01-11T05:18:41;-7.70;99.90
16066;DHT22;8137;48.952;8.970;2024-01-11T05:21:06;-7.70;99.90
16066;DHT22;8137;48.952;8.970;2024-01-11T05:23:32;-7.70;99.90
16066;DHT22;8137;48.952;8.970;2024-01-11T05:25:57;-7.70;99.90
16066;DHT22;8137;48.952;8.970;2024-01-11T05:28:23;-7.70;99.90
16066;DHT22;8137;48.952;8.970;2024-01-11T05:30:48;-7.60;99.90
16066;DHT22;8137;48.952;8.970;2024-01-11T05:33:14;-7.60;99.90
16066;DHT22;8137;48.952;8.970;2024-01-11T05:35:40;-7.60;99.90
16066;DHT22;8137;48.952;8.970;2024-01-11T05:38:05;-7.60;99.90
16066;DHT22;8137;48.952;8.970;2024-01-11T05:40:31;-7.60;99.90
16066;DHT22;8137;48.952;8.970;2024-01-11T05:42:56;-7.60;99.90
16066;DHT22;8137;48.952;8.970;2024-01-11T05:45:22;-7.60;99.90
16066;DHT22;8137;48.952;8.970;2024-01-11T05:47:47;-7.60;99.90
16066;DHT22;8137;48.952;8.970;2024-01-11T05:50:13;-7.60;99.90
16066;DHT22;8137;48.952;8.970;2024-01-11T05:52:39;-7.60;99.90
16066;DHT22;8137;48.952;8.970;2024-01-11T05:55:05;-7.60;99.90
16066;DHT22;8137;48.952;8.970;2024-01-11T05:57:30;-7.70;99.90
16066;DHT22;8137;48.952;8.970;2024-01-11T05:59:56;-7.70;99.90
16066;DHT22;8137;48.952;8.970;2024-01-11T06:02:21;-7.70;99.90
16066;DHT22;8137;48.952;8.970;2024-01-11T06:04:48;-7.70;99.90
16066;DHT22;8137;48.952;8.970;2024-01-11T06:07:15;-7.70;99.90
16066;DHT22;8137;48.952;8.970;2024-01-11T06:09:40;-7.70;99.90
16066;DHT22;8137;48.952;8.970;2024-01-11T06:12:06;-7.70;99.90
16066;DHT22;8137;48.952;8.970;2024-01-11T06:14:31;-7.70;99.90
16066;DHT22;8137;48.952;8.970;2024-01-11T06:16:57;-7.70;99.90
16066;DHT22;8137;48.952;8.970;2024-01-11T06:19:23;-7.70;99.90
16066;DHT22;8137;48.952;8.970;2024-01-11T06:21:48;-7.70;99.90
16066;DHT22;8137;48.952;8.970;2024-01-11T06:24:14;-7.70;99.90
16066;DHT22;8137;48.952;8.970;2024-01-11T06:26:40;-7.70;99.90
16066;DHT22;8137;48.952;8.970;2024-01-11T06:29:05;-7.70;99.90
16066;DHT22;8137;48.952;8.970;2024-01-11T06:31:31;-7.70;99.90
16066;DHT22;8137;48.952;8.970;2024-01-11T06:33:57;-7.70;99.90
16066;DHT22;8137;48.952;8.970;2024-01-11T06:36:22;-7.80;99.90
16066;DHT22;8137;48.952;8.970;2024-01-11T06:38:48;-7.80;99.90
16066;DHT22;8137;48.952;8.970;2024-01-11T06:41:14;-7.90;99.90
16066;DHT22;8137;48.952;8.970;2024-01-11T06:43:39;-7.90;99.90
16066;DHT22;8137;48.952;8.970;2024-01-11T06:46:05;-7.90;99.90
16066;DHT22;8137;48.952;8.970;2024-01-11T06:48:34;-7.90;99.90
16066;DHT22;8137;48.952;8.970;2024-01-11T06:51:00;-7.90;99.90
16066;DHT22;8137;48.952;8.970;2024-01-11T06:53:25;-8.00;99.90
16066;DHT22;8137;48.952;8.970;2024-01-11T06:55:51;-7.90;99.90
16066;DHT22;8137;48.952;8.970;2024-01-11T06:58:20;-7.90;99.90
16066;DHT22;8137;48.952;8.970;2024-01-11T07:00:46;-7.90;99.90
16066;DHT22;8137;48.952;8.970;2024-01-11T07:03:12;-7.90;99.90
16066;DHT22;8137;48.952;8.970;2024-01-11T07:05:38;-7.80;99.90
16066;DHT22;8137;48.952;8.970;2024-01-11T07:08:04;-7.80;99.90
16066;DHT22;8137;48.952;8.970;2024-01-11T07:10:29;-7.80;99.90
16066;DHT22;8137;48.952;8.970;2024-01-11T07:12:55;-7.90;99.90
16066;DHT22;8137;48.952;8.970;2024-01-11T07:15:20;-7.80;99.90
16066;DHT22;8137;48.952;8.970;2024-01-11T07:17:46;-7.80;99.90
16066;DHT22;8137;48.952;8.970;2024-01-11T07:20:12;-7.80;99.90
16066;DHT22;8137;48.952;8.970;2024-01-11T07:22:38;-7.80;99.90
16066;DHT22;8137;48.952;8.970;2024-01-11T07:25:04;-7.80;99.90
16066;DHT22;8137;48.952;8.970;2024-01-11T07:27:30;-7.70;99.90
16066;DHT22;8137;48.952;8.970;2024-01-11T07:29:55;-7.60;99.90
16066;DHT22;8137;48.952;8.970;2024-01-11T07:32:21;-7.60;99.90
16066;DHT22;8137;48.952;8.970;2024-01-11T07:34:47;-7.60;99.90
16066;DHT22;8137;48.952;8.970;2024-01-11T07:37:12;-7.60;99.90
16066;DHT22;8137;48.952;8.970;2024-01-11T07:39:38;-7.70;99.90
16066;DHT22;8137;48.952;8.970;2024-01-11T07:42:04;-7.70;99.90
16066;DHT22;8137;48.952;8.970;2024-01-11T07:44:29;-7.70;99.90
16066;DHT22;8137;48.952;8.970;2024-01-11T07:46:55;-7.70;99.90
16066;DHT22;8137;48.952;8.970;2024-01-11T07:49:21;-7.70;99.90
16066;DHT22;8137;48.952;8.970;2024-01-11T07:51:47;-7.60;99.90
16066;DHT22;8137;48.952;8.970;2024-01-11T07:54:12;-7.60;99.90
16066;DHT22;8137;48.952;8.970;2024-01-11T07:56:38;-7.50;99.90
16066;DHT22;8137;48.952;8.970;2024-01-11T07:59:03;-7.40;99.90
16066;DHT22;8137;48.952;8.970;2024-01-11T08:01:30;-7.30;99.90
16066;DHT22;8137;48.952;8.970;2024-01-11T08:03:55;-7.20;99.90
16066;DHT22;8137;48.952;8.970;2024-01-11T08:06:21;-7.10;99.90
16066;DHT22;8137;48.952;8.970;2024-01-11T08:08:47;-7.10;99.90
16066;DHT22;8137;48.952;8.970;2024-01-11T08:11:17;-7.10;99.90
16066;DHT22;8137;48.952;8.970;2024-01-11T08:13:43;-7.10;99.90
16066;DHT22;8137;48.952;8.970;2024-01-11T08:16:14;-7.00;99.90
16066;DHT22;8137;48.952;8.970;2024-01-11T08:18:40;-7.00;99.90
16066;DHT22;8137;48.952;8.970;2024-01-11T08:21:05;-6.80;99.90
16066;DHT22;8137;48.952;8.970;2024-01-11T08:23:34;-6.80;99.90
16066;DHT22;8137;48.952;8.970;2024-01-11T08:26:00;-6.70;99.90
16066;DHT22;8137;48.952;8.970;2024-01-11T08:28:26;-6.70;99.90
16066;DHT22;8137;48.952;8.970;2024-01-11T08:30:51;-6.60;99.90
16066;DHT22;8137;48.952;8.970;2024-01-11T08:33:17;-6.50;99.90
16066;DHT22;8137;48.952;8.970;2024-01-11T08:35:42;-6.40;99.90
16066;DHT22;8137;48.952;8.970;2024-01-11T08:38:08;-6.30;99.90
16066;DHT22;8137;48.952;8.970;2024-01-11T08:40:34;-6.20;99.90
16066;DHT22;8137;48.952;8.970;2024-01-11T08:43:00;-6.10;99.90
16066;DHT22;8137;48.952;8.970;2024-01-11T08:45:26;-6.00;99.90
16066;DHT22;8137;48.952;8.970;2024-01-11T08:47:51;-5.90;99.90
16066;DHT22;8137;48.952;8.970;2024-01-11T08:50:17;-5.80;99.90
16066;DHT22;8137;48.952;8.970;2024-01-11T08:52:43;-5.70;99.90
16066;DHT22;8137;48.952;8.970;2024-01-11T08:55:09;-5.40;99.90
16066;DHT22;8137;48.952;8.970;2024-01-11T08:57:35;-4.60;99.90
16066;DHT22;8137;48.952;8.970;2024-01-11T09:00:04;-4.10;99.90
16066;DHT22;8137;48.952;8.970;2024-01-11T09:02:31;-4.10;99.90
16066;DHT22;8137;48.952;8.970;2024-01-11T09:04:57;-4.20;99.90
16066;DHT22;8137;48.952;8.970;2024-01-11T09:07:23;-4.30;99.90
16066;DHT22;8137;48.952;8.970;2024-01-11T09:09:48;-4.40;99.90
16066;DHT22;8137;48.952;8.970;2024-01-11T09:12:14;-4.40;99.90
16066;DHT22;8137;48.952;8.970;2024-01-11T09:14:39;-4.40;99.90
16066;DHT22;8137;48.952;8.970;2024-01-11T09:17:05;-4.40;99.90
16066;DHT22;8137;48.952;8.970;2024-01-11T09:19:32;-4.40;99.90
16066;DHT22;8137;48.952;8.970;2024-01-11T09:22:00;-4.30;99.90
16066;DHT22;8137;48.952;8.970;2024-01-11T09:24:25;-4.20;99.90
16066;DHT22;8137;48.952;8.970;2024-01-11T09:26:51;-4.20;99.90
16066;DHT22;8137;48.952;8.970;2024-01-11T09:29:17;-4.00;99.90
16066;DHT22;8137;48.952;8.970;2024-01-11T09:31:42;-4.00;99.90
16066;DHT22;8137;48.952;8.970;2024-01-11T09:34:08;-3.80;99.90
16066;DHT22;8137;48.952;8.970;2024-01-11T09:36:34;-3.70;99.90
16066;DHT22;8137;48.952;8.970;2024-01-11T09:39:00;-3.60;99.90
16066;DHT22;8137;48.952;8.970;2024-01-11T09:41:25;-3.50;99.90
16066;DHT22;8137;48.952;8.970;2024-01-11T09:43:54;-3.50;99.90
16066;DHT22;8137;48.952;8.970;2024-01-11T09:46:20;-3.40;99.90
16066;DHT22;8137;48.952;8.970;2024-01-11T09:48:47;-3.20;99.90
16066;DHT22;8137;48.952;8.970;2024-01-11T09:51:14;-3.10;99.90
16066;DHT22;8137;48.952;8.970;2024-01-11T09:53:40;-3.00;99.90
16066;DHT22;8137;48.952;8.970;2024-01-11T09:56:08;-2.80;99.90
16066;DHT22;8137;48.952;8.970;2024-01-11T09:58:38;-2.70;99.90
16066;DHT22;8137;48.952;8.970;2024-01-11T10:01:09;-2.70;99.90
16066;DHT22;8137;48.952;8.970;2024-01-11T10:03:39;-2.70;99.90
16066;DHT22;8137;48.952;8.970;2024-01-11T10:06:06;-2.50;99.90
16066;DHT22;8137;48.952;8.970;2024-01-11T10:08:32;-2.40;99.90
16066;DHT22;8137;48.952;8.970;2024-01-11T10:10:58;-2.20;99.90
16066;DHT22;8137;48.952;8.970;2024-01-11T10:13:28;-2.10;99.90
16066;DHT22;8137;48.952;8.970;2024-01-11T10:16:08;-1.90;99.90
16066;DHT22;8137;48.952;8.970;2024-01-11T10:18:37;-1.90;99.90
16066;DHT22;8137;48.952;8.970;2024-01-11T10:21:03;-1.80;99.90
16066;DHT22;8137;48.952;8.970;2024-01-11T10:23:29;-1.70;99.90
16066;DHT22;8137;48.952;8.970;2024-01-11T10:25:58;-1.60;99.90
16066;DHT22;8137;48.952;8.970;2024-01-11T10:28:27;-1.50;99.90
16066;DHT22;8137;48.952;8.970;2024-01-11T10:30:53;-1.40;99.90
16066;DHT22;8137;48.952;8.970;2024-01-11T10:33:22;-1.30;99.90
16066;DHT22;8137;48.952;8.970;2024-01-11T10:35:48;-1.20;99.90
16066;DHT22;8137;48.952;8.970;2024-01-11T10:38:15;-1.10;99.90
16066;DHT22;8137;48.952;8.970;2024-01-11T10:40:42;-1.00;99.90
16066;DHT22;8137;48.952;8.970;2024-01-11T10:43:09;-0.90;99.90
16066;DHT22;8137;48.952;8.970;2024-01-11T10:45:37;-0.80;99.90
16066;DHT22;8137;48.952;8.970;2024-01-11T10:48:14;-0.70;99.90
16066;DHT22;8137;48.952;8.970;2024-01-11T10:50:51;-0.60;99.90
16066;DHT22;8137;48.952;8.970;2024-01-11T10:53:36;-0.50;99.90
16066;DHT22;8137;48.952;8.970;2024-01-11T10:56:05;-0.40;99.90
16066;DHT22;8137;48.952;8.970;2024-01-11T10:58:33;-0.30;99.90
16066;DHT22;8137;48.952;8.970;2024-01-11T11:01:01;-0.20;99.90
16066;DHT22;8137;48.952;8.970;2024-01-11T11:03:29;-0.20;99.90
16066;DHT22;8137;48.952;8.970;2024-01-11T11:05:58;-0.20;99.90
16066;DHT22;8137;48.952;8.970;2024-01-11T11:08:24;-0.10;99.90
16066;DHT22;8137;48.952;8.970;2024-01-11T11:10:56;0.00;99.90
16066;DHT22;8137;48.952;8.970;2024-01-11T11:13:23;0.00;99.90
16066;DHT22;8137;48.952;8.970;2024-01-11T11:15:49;0.10;99.90
16066;DHT22;8137;48.952;8.970;2024-01-11T11:18:15;0.20;99.90
16066;DHT22;8137;48.952;8.970;2024-01-11T11:20:42;0.30;99.90
16066;DHT22;8137;48.952;8.970;2024-01-11T11:23:08;0.40;99.90
16066;DHT22;8137;48.952;8.970;2024-01-11T11:25:40;0.40;99.90
16066;DHT22;8137;48.952;8.970;2024-01-11T11:28:06;0.40;99.90
16066;DHT22;8137;48.952;8.970;2024-01-11T11:30:40;0.40;99.90
16066;DHT22;8137;48.952;8.970;2024-01-11T11:33:20;0.50;99.90
16066;DHT22;8137;48.952;8.970;2024-01-11T11:35:47;0.70;99.90
16066;DHT22;8137;48.952;8.970;2024-01-11T11:38:21;1.10;99.90
16066;DHT22;8137;48.952;8.970;2024-01-11T11:40:48;1.10;99.90
16066;DHT22;8137;48.952;8.970;2024-01-11T11:43:18;1.10;99.90
16066;DHT22;8137;48.952;8.970;2024-01-11T11:45:46;1.00;99.90
16066;DHT22;8137;48.952;8.970;2024-01-11T11:51:08;1.00;99.90
16066;DHT22;8137;48.952;8.970;2024-01-11T11:53:35;1.00;99.90
16066;DHT22;8137;48.952;8.970;2024-01-11T11:56:02;1.00;99.90
16066;DHT22;8137;48.952;8.970;2024-01-11T11:58:31;0.80;99.90
16066;DHT22;8137;48.952;8.970;2024-01-11T12:00:58;0.90;99.90
16066;DHT22;8137;48.952;8.970;2024-01-11T12:03:32;0.90;99.90
16066;DHT22;8137;48.952;8.970;2024-01-11T12:05:59;1.00;99.90
16066;DHT22;8137;48.952;8.970;2024-01-11T12:08:25;1.10;99.90
16066;DHT22;8137;48.952;8.970;2024-01-11T12:10:51;1.00;99.90
16066;DHT22;8137;48.952;8.970;2024-01-11T12:13:20;1.00;99.90
16066;DHT22;8137;48.952;8.970;2024-01-11T12:15:46;1.00;99.90
16066;DHT22;8137;48.952;8.970;2024-01-11T12:18:12;0.90;99.90
16066;DHT22;8137;48.952;8.970;2024-01-11T12:20:38;0.90;99.90
16066;DHT22;8137;48.952;8.970;2024-01-11T12:23:04;1.00;99.90
16066;DHT22;8137;48.952;8.970;2024-01-11T12:25:30;1.10;99.90
16066;DHT22;8137;48.952;8.970;2024-01-11T12:27:56;1.10;99.90
16066;DHT22;8137;48.952;8.970;2024-01-11T12:30:23;1.20;99.90
16066;DHT22;8137;48.952;8.970;2024-01-11T12:32:50;1.20;99.90
16066;DHT22;8137;48.952;8.970;2024-01-11T12:35:16;1.20;99.90
16066;DHT22;8137;48.952;8.970;2024-01-11T12:37:53;1.30;99.90
16066;DHT22;8137;48.952;8.970;2024-01-11T12:40:19;1.10;99.90
16066;DHT22;8137;48.952;8.970;2024-01-11T12:42:45;1.10;99.90
16066;DHT22;8137;48.952;8.970;2024-01-11T12:45:10;1.20;99.90
16066;DHT22;8137;48.952;8.970;2024-01-11T12:47:36;1.30;99.90
16066;DHT22;8137;48.952;8.970;2024-01-11T12:50:03;1.30;99.90
16066;DHT22;8137;48.952;8.970;2024-01-11T12:52:29;1.30;99.90
16066;DHT22;8137;48.952;8.970;2024-01-11T12:54:55;1.40;99.90
16066;DHT22;8137;48.952;8.970;2024-01-11T12:57:22;1.40;99.90
16066;DHT22;8137;48.952;8.970;2024-01-11T12:59:48;1.40;99.90
16066;DHT22;8137;48.952;8.970;2024-01-11T13:02:15;1.40;99.90
16066;DHT22;8137;48.952;8.970;2024-01-11T13:04:43;1.40;99.90
16066;DHT22;8137;48.952;8.970;2024-01-11T13:07:10;1.40;99.90
16066;DHT22;8137;48.952;8.970;2024-01-11T13:09:37;1.40;99.90
16066;DHT22;8137;48.952;8.970;2024-01-11T13:12:03;1.40;99.90
16066;DHT22;8137;48.952;8.970;2024-01-11T13:14:29;1.40;99.90
16066;DHT22;8137;48.952;8.970;2024-01-11T13:16:55;1.40;99.90
16066;DHT22;8137;48.952;8.970;2024-01-11T13:19:20;1.40;99.90
16066;DHT22;8137;48.952;8.970;2024-01-11T13:21:46;1.40;99.90
16066;DHT22;8137;48.952;8.970;2024-01-11T13:24:11;1.50;99.90
16066;DHT22;8137;48.952;8.970;2024-01-11T13:26:38;1.60;99.90
16066;DHT22;8137;48.952;8.970;2024-01-11T13:29:05;1.50;99.90
16066;DHT22;8137;48.952;8.970;2024-01-11T13:31:33;1.50;99.90
16066;DHT22;8137;48.952;8.970;2024-01-11T13:33:59;1.60;99.90
16066;DHT22;8137;48.952;8.970;2024-01-11T13:36:25;1.60;99.90
16066;DHT22;8137;48.952;8.970;2024-01-11T13:38:51;1.70;99.90
16066;DHT22;8137;48.952;8.970;2024-01-11T13:41:18;1.70;99.90
16066;DHT22;8137;48.952;8.970;2024-01-11T13:43:44;1.60;99.90
16066;DHT22;8137;48.952;8.970;2024-01-11T13:46:10;1.60;99.90
16066;DHT22;8137;48.952;8.970;2024-01-11T13:48:38;1.50;99.90
16066;DHT22;8137;48.952;8.970;2024-01-11T13:51:04;1.60;99.90
16066;DHT22;8137;48.952;8.970;2024-01-11T13:53:29;1.60;99.90
16066;DHT22;8137;48.952;8.970;2024-01-11T13:55:56;1.60;99.90
16066;DHT22;8137;48.952;8.970;2024-01-11T13:58:22;1.60;99.90
16066;DHT22;8137;48.952;8.970;2024-01-11T14:00:48;1.50;99.90
16066;DHT22;8137;48.952;8.970;2024-01-11T14:03:14;1.50;99.90
16066;DHT22;8137;48.952;8.970;2024-01-11T14:05:39;1.50;99.90
16066;DHT22;8137;48.952;8.970;2024-01-11T14:08:05;1.40;99.90
16066;DHT22;8137;48.952;8.970;2024-01-11T14:10:33;1.40;99.90
16066;DHT22;8137;48.952;8.970;2024-01-11T14:13:00;1.30;99.90
16066;DHT22;8137;48.952;8.970;2024-01-11T14:15:26;1.30;99.90
16066;DHT22;8137;48.952;8.970;2024-01-11T14:17:52;1.20;99.90
16066;DHT22;8137;48.952;8.970;2024-01-11T14:20:18;1.20;99.90
16066;DHT22;8137;48.952;8.970;2024-01-11T14:22:44;1.20;99.90
16066;DHT22;8137;48.952;8.970;2024-01-11T14:25:18;1.20;99.90
16066;DHT22;8137;48.952;8.970;2024-01-11T14:27:44;1.20;99.90
16066;DHT22;8137;48.952;8.970;2024-01-11T14:30:11;1.10;99.90
16066;DHT22;8137;48.952;8.970;2024-01-11T14:32:37;1.10;99.90
16066;DHT22;8137;48.952;8.970;2024-01-11T14:35:03;1.10;99.90
16066;DHT22;8137;48.952;8.970;2024-01-11T14:37:36;1.10;99.90
16066;DHT22;8137;48.952;8.970;2024-01-11T14:40:03;1.10;99.90
16066;DHT22;8137;48.952;8.970;2024-01-11T14:42:29;1.00;99.90
16066;DHT22;8137;48.952;8.970;2024-01-11T14:44:55;1.00;99.90
16066;DHT22;8137;48.952;8.970;2024-01-11T14:47:21;0.90;99.90
16066;DHT22;8137;48.952;8.970;2024-01-11T14:49:47;0.90;99.90
16066;DHT22;8137;48.952;8.970;2024-01-11T14:52:13;0.90;99.90
16066;DHT22;8137;48.952;8.970;2024-01-11T14:54:39;0.90;99.90
16066;DHT22;8137;48.952;8.970;2024-01-11T14:57:05;0.80;99.90
16066;DHT22;8137;48.952;8.970;2024-01-11T14:59:31;0.80;99.90
16066;DHT22;8137;48.952;8.970;2024-01-11T15:01:58;0.70;99.90
16066;DHT22;8137;48.952;8.970;2024-01-11T15:04:25;0.60;99.90
16066;DHT22;8137;48.952;8.970;2024-01-11T15:06:51;0.50;99.90
16066;DHT22;8137;48.952;8.970;2024-01-11T15:09:16;0.40;99.90
16066;DHT22;8137;48.952;8.970;2024-01-11T15:11:42;0.40;99.90
16066;DHT22;8137;48.952;8.970;2024-01-11T15:14:08;0.30;99.90
16066;DHT22;8137;48.952;8.970;2024-01-11T15:16:37;0.30;99.90
16066;DHT22;8137;48.952;8.970;2024-01-11T15:19:03;0.20;99.90
16066;DHT22;8137;48.952;8.970;2024-01-11T15:21:29;0.10;99.90
16066;DHT22;8137;48.952;8.970;2024-01-11T15:23:56;0.10;99.90
16066;DHT22;8137;48.952;8.970;2024-01-11T15:26:22;0.00;99.90
16066;DHT22;8137;48.952;8.970;2024-01-11T15:28:48;-0.10;99.90
16066;DHT22;8137;48.952;8.970;2024-01-11T15:31:13;-0.10;99.90
16066;DHT22;8137;48.952;8.970;2024-01-11T15:33:42;-0.20;99.90
16066;DHT22;8137;48.952;8.970;2024-01-11T15:36:08;-0.20;99.90
16066;DHT22;8137;48.952;8.970;2024-01-11T15:38:34;-0.30;99.90
16066;DHT22;8137;48.952;8.970;2024-01-11T15:41:00;-0.50;99.90
16066;DHT22;8137;48.952;8.970;2024-01-11T15:43:25;-0.50;99.90
16066;DHT22;8137;48.952;8.970;2024-01-11T15:45:51;-0.60;99.90
16066;DHT22;8137;48.952;8.970;2024-01-11T15:48:17;-0.70;99.90